createdAt,value
2022-11-24T00:06:13.156Z,100
2022-11-24T00:16:13.405Z,100
2022-11-24T00:36:15.093Z,100
2022-11-24T00:46:15.946Z,100
2022-11-24T00:56:16.043Z,100
2022-11-24T01:16:17.107Z,100
2022-11-24T01:26:17.273Z,100
2022-11-24T01:36:18.161Z,100
2022-11-24T01:46:19.006Z,100
2022-11-24T01:56:19.855Z,100
2022-11-24T02:16:21.915Z,100
2022-11-24T02:46:23.985Z,99
2022-11-24T03:06:24.820Z,99
2022-11-24T03:16:25.638Z,98
2022-11-24T03:36:26.743Z,99
2022-11-24T03:46:27.303Z,99
2022-11-24T03:56:28.222Z,98
2022-11-24T04:06:28.891Z,98
2022-11-24T04:16:29.281Z,98
2022-11-24T04:26:29.930Z,98
2022-11-24T04:36:30.070Z,98
2022-11-24T04:46:31.002Z,97
2022-11-24T05:06:32.277Z,97
2022-11-24T05:16:32.495Z,98
2022-11-24T05:26:32.989Z,99
2022-11-24T05:36:33.335Z,100
2022-11-24T05:46:34.000Z,100
2022-11-24T05:56:34.208Z,100
2022-11-24T06:06:35.428Z,100
2022-11-24T06:16:35.666Z,100
2022-11-24T06:36:36.885Z,100
2022-11-24T06:56:38.840Z,100
2022-11-24T07:06:39.529Z,99
2022-11-24T07:16:40.535Z,99
2022-11-24T07:26:40.887Z,98
2022-11-24T07:36:41.074Z,98
2022-11-24T07:46:41.173Z,96
2022-11-24T07:56:42.113Z,95
2022-11-24T08:06:47.107Z,95
2022-11-24T08:16:43.769Z,94
2022-11-24T08:26:44.145Z,94
2022-11-24T08:36:44.875Z,93
2022-11-24T08:46:45.052Z,92
2022-11-24T08:56:45.753Z,93
2022-11-24T09:06:46.018Z,92
2022-11-24T09:46:48.651Z,92
2022-11-24T10:06:49.493Z,93
2022-11-24T10:16:51.319Z,92
2022-11-24T10:46:51.749Z,93
2022-11-24T10:56:52.473Z,93
2022-11-24T11:56:56.086Z,91
2022-11-24T12:06:56.339Z,87
2022-11-24T12:36:58.371Z,87
2022-11-24T12:46:59.226Z,87
2022-11-24T12:56:59.375Z,87
2022-11-24T13:07:00.090Z,87
2022-11-24T13:27:01.258Z,88
2022-11-24T13:37:26.940Z,87
2022-11-24T13:47:05.977Z,87
2022-11-24T13:57:02.436Z,87
2022-11-24T14:07:07.712Z,86
2022-11-24T14:17:04.347Z,86
2022-11-24T14:27:04.638Z,87
2022-11-24T14:37:05.264Z,88
2022-11-24T14:47:06.367Z,88
2022-11-24T14:57:06.863Z,88
2022-11-24T15:07:07.271Z,89
2022-11-24T15:17:07.595Z,90
2022-11-24T15:27:08.366Z,90
2022-11-24T15:37:08.534Z,91
2022-11-24T15:57:09.874Z,93
2022-11-24T16:07:10.025Z,94
2022-11-24T16:17:11.058Z,95
2022-11-24T16:37:12.160Z,96
2022-11-24T16:47:12.915Z,97
2022-11-24T16:57:15.070Z,97
2022-11-24T17:07:14.060Z,98
2022-11-24T17:17:14.685Z,99
2022-11-24T17:27:15.509Z,99
2022-11-24T17:37:16.235Z,99
2022-11-24T17:47:16.374Z,100
2022-11-24T17:57:17.057Z,100
2022-11-24T18:07:18.037Z,100
2022-11-24T18:17:18.877Z,100
2022-11-24T18:27:19.594Z,100
2022-11-24T18:37:20.663Z,100
2022-11-24T18:47:21.637Z,100
2022-11-24T18:57:22.577Z,99
2022-11-24T19:07:23.735Z,98
2022-11-24T19:17:24.712Z,97
2022-11-24T19:27:25.630Z,97
2022-11-24T19:37:26.613Z,97
2022-11-24T19:47:27.484Z,96
2022-11-24T19:57:28.108Z,96
2022-11-24T20:07:29.210Z,96
2022-11-24T20:17:29.851Z,96
2022-11-24T20:27:30.119Z,96
2022-11-24T20:37:30.441Z,96
2022-11-24T20:47:31.353Z,95
2022-11-24T20:57:32.383Z,96
2022-11-24T21:07:32.810Z,95
2022-11-24T21:17:33.101Z,96
2022-11-24T21:27:34.020Z,96
2022-11-24T21:47:35.798Z,98
2022-11-24T21:57:36.374Z,99
2022-11-24T22:07:37.297Z,100
2022-11-24T22:17:37.614Z,100
2022-11-24T22:27:37.910Z,100
2022-11-24T22:37:38.581Z,100
2022-11-24T22:47:39.249Z,100
2022-11-24T22:57:42.094Z,100
2022-11-24T23:27:42.399Z,100
2022-11-24T23:38:00.202Z,100
2022-11-24T23:47:43.722Z,100
2022-11-24T23:57:44.566Z,100
